Terminal Aerodrome Forecast
Issued by NWS

Home | Current Version | Previous Version | Text Only | Print | Product List | Glossary On
Versions: 1 2 3 4 5 6 7 8 9 10 11 12 13
000
FTUS42 KMLB 021700
TAFTIX
TAF
KTIX 021735Z 0218/0318 08007KT P6SM SCT030 SCT100
     FM030200 10003KT P6SM FEW040 BKN120
     FM031400 12007KT P6SM SCT250=

USA.gov is the U.S. government's official web portal to all federal, state and local government web resources and services.